sensor_id;sensor_type;location;lat;lon;timestamp;P1;durP1;ratioP1;P2;durP2;ratioP2
8584;SDS011;7180;52.742;11.420;2022-09-27T00:01:43;9.10;;;8.50;;
8584;SDS011;7180;52.742;11.420;2022-09-27T00:04:09;8.90;;;8.40;;
8584;SDS011;7180;52.742;11.420;2022-09-27T00:06:35;8.87;;;8.33;;
8584;SDS011;7180;52.742;11.420;2022-09-27T00:09:00;9.07;;;8.50;;
8584;SDS011;7180;52.742;11.420;2022-09-27T00:13:51;8.87;;;8.37;;
8584;SDS011;7180;52.742;11.420;2022-09-27T00:16:16;8.73;;;8.23;;
8584;SDS011;7180;52.742;11.420;2022-09-27T00:18:41;8.25;;;7.85;;
8584;SDS011;7180;52.742;11.420;2022-09-27T00:21:07;8.73;;;8.27;;
8584;SDS011;7180;52.742;11.420;2022-09-27T00:23:33;9.10;;;8.40;;
8584;SDS011;7180;52.742;11.420;2022-09-27T00:25:58;9.57;;;8.90;;
8584;SDS011;7180;52.742;11.420;2022-09-27T00:28:24;8.70;;;8.30;;
8584;SDS011;7180;52.742;11.420;2022-09-27T00:30:49;8.57;;;8.07;;
8584;SDS011;7180;52.742;11.420;2022-09-27T00:33:14;8.83;;;8.33;;
8584;SDS011;7180;52.742;11.420;2022-09-27T00:35:39;9.30;;;8.80;;
8584;SDS011;7180;52.742;11.420;2022-09-27T00:38:04;9.30;;;8.80;;
8584;SDS011;7180;52.742;11.420;2022-09-27T00:40:30;9.07;;;8.50;;
8584;SDS011;7180;52.742;11.420;2022-09-27T00:42:56;9.00;;;8.50;;
8584;SDS011;7180;52.742;11.420;2022-09-27T00:45:21;10.00;;;9.40;;
8584;SDS011;7180;52.742;11.420;2022-09-27T00:48:05;9.20;;;8.60;;
8584;SDS011;7180;52.742;11.420;2022-09-27T00:50:31;9.37;;;8.80;;
8584;SDS011;7180;52.742;11.420;2022-09-27T00:53:02;9.37;;;8.87;;
8584;SDS011;7180;52.742;11.420;2022-09-27T00:55:29;9.23;;;8.63;;
8584;SDS011;7180;52.742;11.420;2022-09-27T00:57:55;9.33;;;8.73;;
8584;SDS011;7180;52.742;11.420;2022-09-27T01:00:21;8.83;;;8.43;;
8584;SDS011;7180;52.742;11.420;2022-09-27T01:02:49;9.03;;;8.53;;
8584;SDS011;7180;52.742;11.420;2022-09-27T01:05:15;9.30;;;8.67;;
8584;SDS011;7180;52.742;11.420;2022-09-27T01:07:41;8.90;;;8.40;;
8584;SDS011;7180;52.742;11.420;2022-09-27T01:10:06;9.07;;;8.57;;
8584;SDS011;7180;52.742;11.420;2022-09-27T01:12:49;9.30;;;8.90;;
8584;SDS011;7180;52.742;11.420;2022-09-27T01:15:28;9.00;;;8.50;;
8584;SDS011;7180;52.742;11.420;2022-09-27T01:18:01;9.27;;;8.77;;
8584;SDS011;7180;52.742;11.420;2022-09-27T01:20:48;9.63;;;9.03;;
8584;SDS011;7180;52.742;11.420;2022-09-27T01:33:24;9.52;;;9.02;;
8584;SDS011;7180;52.742;11.420;2022-09-27T01:36:00;9.23;;;8.73;;
8584;SDS011;7180;52.742;11.420;2022-09-27T01:41:05;9.90;;;9.30;;
8584;SDS011;7180;52.742;11.420;2022-09-27T01:43:43;9.30;;;8.70;;
8584;SDS011;7180;52.742;11.420;2022-09-27T01:46:10;9.47;;;8.97;;
8584;SDS011;7180;52.742;11.420;2022-09-27T01:48:39;9.60;;;8.90;;
8584;SDS011;7180;52.742;11.420;2022-09-27T01:51:07;8.80;;;8.40;;
8584;SDS011;7180;52.742;11.420;2022-09-27T01:53:40;9.23;;;8.67;;
8584;SDS011;7180;52.742;11.420;2022-09-27T01:56:10;9.73;;;9.13;;
8584;SDS011;7180;52.742;11.420;2022-09-27T01:59:11;8.90;;;8.50;;
8584;SDS011;7180;52.742;11.420;2022-09-27T02:01:29;9.50;;;9.00;;
8584;SDS011;7180;52.742;11.420;2022-09-27T02:03:56;9.13;;;8.73;;
8584;SDS011;7180;52.742;11.420;2022-09-27T02:06:29;9.17;;;8.67;;
8584;SDS011;7180;52.742;11.420;2022-09-27T02:09:13;9.53;;;9.07;;
8584;SDS011;7180;52.742;11.420;2022-09-27T02:11:41;9.57;;;8.97;;
8584;SDS011;7180;52.742;11.420;2022-09-27T02:14:10;9.27;;;8.87;;
8584;SDS011;7180;52.742;11.420;2022-09-27T02:16:50;9.30;;;8.90;;
8584;SDS011;7180;52.742;11.420;2022-09-27T02:22:03;9.17;;;8.67;;
8584;SDS011;7180;52.742;11.420;2022-09-27T02:24:40;9.43;;;8.93;;
8584;SDS011;7180;52.742;11.420;2022-09-27T02:27:11;9.60;;;9.10;;
8584;SDS011;7180;52.742;11.420;2022-09-27T02:29:42;9.20;;;8.70;;
8584;SDS011;7180;52.742;11.420;2022-09-27T02:32:08;9.67;;;9.17;;
8584;SDS011;7180;52.742;11.420;2022-09-27T02:34:33;9.20;;;8.80;;
8584;SDS011;7180;52.742;11.420;2022-09-27T02:37:01;10.13;;;9.50;;
8584;SDS011;7180;52.742;11.420;2022-09-27T02:39:26;9.83;;;9.23;;
8584;SDS011;7180;52.742;11.420;2022-09-27T02:41:51;9.98;;;9.38;;
8584;SDS011;7180;52.742;11.420;2022-09-27T02:44:17;9.20;;;8.70;;
8584;SDS011;7180;52.742;11.420;2022-09-27T02:52:04;9.80;;;9.10;;
8584;SDS011;7180;52.742;11.420;2022-09-27T02:57:15;9.53;;;9.03;;
8584;SDS011;7180;52.742;11.420;2022-09-27T02:59:51;9.90;;;9.40;;
8584;SDS011;7180;52.742;11.420;2022-09-27T03:02:20;9.27;;;8.87;;
8584;SDS011;7180;52.742;11.420;2022-09-27T03:04:50;9.30;;;8.90;;
8584;SDS011;7180;52.742;11.420;2022-09-27T03:07:17;9.63;;;9.10;;
8584;SDS011;7180;52.742;11.420;2022-09-27T03:09:44;9.43;;;8.93;;
8584;SDS011;7180;52.742;11.420;2022-09-27T03:12:09;9.70;;;9.10;;
8584;SDS011;7180;52.742;11.420;2022-09-27T03:14:34;9.10;;;8.50;;
8584;SDS011;7180;52.742;11.420;2022-09-27T03:17:00;9.07;;;8.63;;
8584;SDS011;7180;52.742;11.420;2022-09-27T03:19:25;9.30;;;8.70;;
8584;SDS011;7180;52.742;11.420;2022-09-27T03:21:50;8.25;;;7.85;;
8584;SDS011;7180;52.742;11.420;2022-09-27T03:24:15;9.00;;;8.60;;
8584;SDS011;7180;52.742;11.420;2022-09-27T03:26:40;9.30;;;8.80;;
8584;SDS011;7180;52.742;11.420;2022-09-27T03:29:05;9.43;;;8.93;;
8584;SDS011;7180;52.742;11.420;2022-09-27T03:31:31;9.13;;;8.63;;
8584;SDS011;7180;52.742;11.420;2022-09-27T03:33:56;9.30;;;8.70;;
8584;SDS011;7180;52.742;11.420;2022-09-27T03:36:21;8.50;;;7.87;;
8584;SDS011;7180;52.742;11.420;2022-09-27T03:38:46;9.15;;;8.65;;
8584;SDS011;7180;52.742;11.420;2022-09-27T03:41:11;9.38;;;8.88;;
8584;SDS011;7180;52.742;11.420;2022-09-27T03:43:36;9.93;;;9.33;;
8584;SDS011;7180;52.742;11.420;2022-09-27T03:46:02;9.37;;;8.93;;
8584;SDS011;7180;52.742;11.420;2022-09-27T03:48:27;9.93;;;9.32;;
8584;SDS011;7180;52.742;11.420;2022-09-27T03:50:55;9.43;;;8.93;;
8584;SDS011;7180;52.742;11.420;2022-09-27T03:53:20;9.37;;;8.87;;
8584;SDS011;7180;52.742;11.420;2022-09-27T03:55:45;9.63;;;9.03;;
8584;SDS011;7180;52.742;11.420;2022-09-27T03:58:11;9.53;;;9.03;;
8584;SDS011;7180;52.742;11.420;2022-09-27T04:00:36;9.60;;;9.00;;
8584;SDS011;7180;52.742;11.420;2022-09-27T04:03:01;9.37;;;8.87;;
8584;SDS011;7180;52.742;11.420;2022-09-27T04:05:26;9.13;;;8.73;;
8584;SDS011;7180;52.742;11.420;2022-09-27T04:07:52;9.50;;;9.00;;
8584;SDS011;7180;52.742;11.420;2022-09-27T04:10:17;9.30;;;8.80;;
8584;SDS011;7180;52.742;11.420;2022-09-27T04:12:43;9.17;;;8.67;;
8584;SDS011;7180;52.742;11.420;2022-09-27T04:15:08;9.30;;;8.70;;
8584;SDS011;7180;52.742;11.420;2022-09-27T04:17:34;9.50;;;9.00;;
8584;SDS011;7180;52.742;11.420;2022-09-27T04:19:59;9.80;;;9.10;;
8584;SDS011;7180;52.742;11.420;2022-09-27T04:22:26;9.60;;;9.10;;
8584;SDS011;7180;52.742;11.420;2022-09-27T04:24:52;9.30;;;8.87;;
8584;SDS011;7180;52.742;11.420;2022-09-27T04:27:17;9.00;;;8.60;;
8584;SDS011;7180;52.742;11.420;2022-09-27T04:29:42;8.67;;;8.27;;
8584;SDS011;7180;52.742;11.420;2022-09-27T04:32:09;9.07;;;8.57;;
8584;SDS011;7180;52.742;11.420;2022-09-27T04:34:35;9.47;;;8.87;;
8584;SDS011;7180;52.742;11.420;2022-09-27T04:37:18;9.03;;;8.63;;
8584;SDS011;7180;52.742;11.420;2022-09-27T04:39:44;9.23;;;8.73;;
8584;SDS011;7180;52.742;11.420;2022-09-27T04:42:09;8.55;;;8.15;;
8584;SDS011;7180;52.742;11.420;2022-09-27T04:44:34;9.17;;;8.53;;
8584;SDS011;7180;52.742;11.420;2022-09-27T04:47:00;9.00;;;8.50;;
8584;SDS011;7180;52.742;11.420;2022-09-27T04:49:25;9.23;;;8.73;;
8584;SDS011;7180;52.742;11.420;2022-09-27T04:51:50;9.33;;;8.83;;
8584;SDS011;7180;52.742;11.420;2022-09-27T04:54:15;9.40;;;8.90;;
8584;SDS011;7180;52.742;11.420;2022-09-27T04:56:41;9.23;;;8.73;;
8584;SDS011;7180;52.742;11.420;2022-09-27T04:59:07;9.80;;;9.20;;
8584;SDS011;7180;52.742;11.420;2022-09-27T05:01:33;9.37;;;8.87;;
8584;SDS011;7180;52.742;11.420;2022-09-27T05:03:58;9.57;;;8.87;;
8584;SDS011;7180;52.742;11.420;2022-09-27T05:06:23;9.20;;;8.70;;
8584;SDS011;7180;52.742;11.420;2022-09-27T05:08:49;9.10;;;8.60;;
8584;SDS011;7180;52.742;11.420;2022-09-27T05:11:14;9.13;;;8.70;;
8584;SDS011;7180;52.742;11.420;2022-09-27T05:13:39;9.07;;;8.68;;
8584;SDS011;7180;52.742;11.420;2022-09-27T05:16:04;9.03;;;8.53;;
8584;SDS011;7180;52.742;11.420;2022-09-27T05:18:29;9.47;;;8.87;;
8584;SDS011;7180;52.742;11.420;2022-09-27T05:20:55;9.00;;;8.60;;
8584;SDS011;7180;52.742;11.420;2022-09-27T05:23:22;8.80;;;8.40;;
8584;SDS011;7180;52.742;11.420;2022-09-27T05:25:47;9.00;;;8.60;;
8584;SDS011;7180;52.742;11.420;2022-09-27T05:28:13;9.40;;;8.90;;
8584;SDS011;7180;52.742;11.420;2022-09-27T05:30:38;9.17;;;8.77;;
8584;SDS011;7180;52.742;11.420;2022-09-27T05:33:03;9.30;;;8.90;;
8584;SDS011;7180;52.742;11.420;2022-09-27T05:35:28;9.77;;;9.17;;
8584;SDS011;7180;52.742;11.420;2022-09-27T05:37:57;9.40;;;8.80;;
8584;SDS011;7180;52.742;11.420;2022-09-27T05:40:23;9.70;;;9.20;;
8584;SDS011;7180;52.742;11.420;2022-09-27T05:42:50;9.73;;;9.13;;
8584;SDS011;7180;52.742;11.420;2022-09-27T05:45:15;9.90;;;9.40;;
8584;SDS011;7180;52.742;11.420;2022-09-27T05:47:40;9.77;;;9.27;;
8584;SDS011;7180;52.742;11.420;2022-09-27T05:50:05;9.83;;;9.20;;
8584;SDS011;7180;52.742;11.420;2022-09-27T05:52:32;9.30;;;8.80;;
8584;SDS011;7180;52.742;11.420;2022-09-27T05:54:57;9.85;;;9.25;;
8584;SDS011;7180;52.742;11.420;2022-09-27T05:57:23;10.13;;;9.50;;
8584;SDS011;7180;52.742;11.420;2022-09-27T05:59:48;10.00;;;9.40;;
8584;SDS011;7180;52.742;11.420;2022-09-27T06:02:13;9.17;;;8.67;;
8584;SDS011;7180;52.742;11.420;2022-09-27T06:04:39;9.20;;;8.70;;
8584;SDS011;7180;52.742;11.420;2022-09-27T06:07:04;8.90;;;8.40;;
8584;SDS011;7180;52.742;11.420;2022-09-27T06:09:29;8.85;;;8.35;;
8584;SDS011;7180;52.742;11.420;2022-09-27T06:11:54;9.30;;;8.80;;
8584;SDS011;7180;52.742;11.420;2022-09-27T06:14:20;9.30;;;8.70;;
8584;SDS011;7180;52.742;11.420;2022-09-27T06:16:46;9.40;;;8.70;;
8584;SDS011;7180;52.742;11.420;2022-09-27T06:19:12;9.20;;;8.70;;
8584;SDS011;7180;52.742;11.420;2022-09-27T06:21:37;9.48;;;8.98;;
8584;SDS011;7180;52.742;11.420;2022-09-27T06:24:02;9.40;;;8.90;;
8584;SDS011;7180;52.742;11.420;2022-09-27T06:26:27;9.50;;;8.90;;
8584;SDS011;7180;52.742;11.420;2022-09-27T06:28:53;9.40;;;8.80;;
8584;SDS011;7180;52.742;11.420;2022-09-27T06:31:18;8.93;;;8.43;;
8584;SDS011;7180;52.742;11.420;2022-09-27T06:33:44;9.47;;;8.80;;
8584;SDS011;7180;52.742;11.420;2022-09-27T06:36:10;9.23;;;8.73;;
8584;SDS011;7180;52.742;11.420;2022-09-27T06:38:35;9.47;;;8.87;;
8584;SDS011;7180;52.742;11.420;2022-09-27T06:41:08;9.13;;;8.63;;
8584;SDS011;7180;52.742;11.420;2022-09-27T06:43:33;9.93;;;9.33;;
8584;SDS011;7180;52.742;11.420;2022-09-27T06:45:59;9.33;;;8.73;;
8584;SDS011;7180;52.742;11.420;2022-09-27T06:48:28;9.70;;;9.10;;
8584;SDS011;7180;52.742;11.420;2022-09-27T06:50:54;9.73;;;9.10;;
8584;SDS011;7180;52.742;11.420;2022-09-27T06:53:21;9.13;;;8.63;;
8584;SDS011;7180;52.742;11.420;2022-09-27T06:55:47;9.47;;;8.90;;
8584;SDS011;7180;52.742;11.420;2022-09-27T06:58:12;9.73;;;9.23;;
8584;SDS011;7180;52.742;11.420;2022-09-27T07:00:56;10.07;;;9.47;;
8584;SDS011;7180;52.742;11.420;2022-09-27T07:03:22;9.43;;;8.83;;
8584;SDS011;7180;52.742;11.420;2022-09-27T07:05:53;9.77;;;9.27;;
8584;SDS011;7180;52.742;11.420;2022-09-27T07:08:19;8.47;;;8.00;;
8584;SDS011;7180;52.742;11.420;2022-09-27T07:10:45;8.88;;;8.38;;
8584;SDS011;7180;52.742;11.420;2022-09-27T07:13:10;8.70;;;8.17;;
8584;SDS011;7180;52.742;11.420;2022-09-27T07:15:36;8.65;;;8.15;;
8584;SDS011;7180;52.742;11.420;2022-09-27T07:18:01;9.17;;;8.57;;
8584;SDS011;7180;52.742;11.420;2022-09-27T07:20:27;9.63;;;8.40;;
8584;SDS011;7180;52.742;11.420;2022-09-27T07:22:53;9.17;;;8.67;;
8584;SDS011;7180;52.742;11.420;2022-09-27T07:25:18;8.83;;;8.30;;
8584;SDS011;7180;52.742;11.420;2022-09-27T07:27:44;8.90;;;8.30;;
8584;SDS011;7180;52.742;11.420;2022-09-27T07:30:10;9.30;;;8.70;;
8584;SDS011;7180;52.742;11.420;2022-09-27T07:32:35;9.17;;;8.67;;
8584;SDS011;7180;52.742;11.420;2022-09-27T07:35:01;8.43;;;8.03;;
8584;SDS011;7180;52.742;11.420;2022-09-27T07:37:27;9.17;;;8.57;;
8584;SDS011;7180;52.742;11.420;2022-09-27T07:39:52;8.80;;;8.30;;
8584;SDS011;7180;52.742;11.420;2022-09-27T07:42:18;8.87;;;8.37;;
8584;SDS011;7180;52.742;11.420;2022-09-27T07:44:44;9.20;;;8.70;;
8584;SDS011;7180;52.742;11.420;2022-09-27T07:47:09;8.30;;;7.85;;
8584;SDS011;7180;52.742;11.420;2022-09-27T07:49:35;10.20;;;9.60;;
8584;SDS011;7180;52.742;11.420;2022-09-27T07:52:00;9.63;;;9.13;;
8584;SDS011;7180;52.742;11.420;2022-09-27T07:54:25;10.40;;;9.80;;
8584;SDS011;7180;52.742;11.420;2022-09-27T07:56:50;9.35;;;8.75;;
8584;SDS011;7180;52.742;11.420;2022-09-27T07:59:15;9.60;;;9.10;;
8584;SDS011;7180;52.742;11.420;2022-09-27T08:01:40;9.43;;;8.93;;
8584;SDS011;7180;52.742;11.420;2022-09-27T08:04:06;9.38;;;8.88;;
8584;SDS011;7180;52.742;11.420;2022-09-27T08:06:31;9.57;;;9.07;;
8584;SDS011;7180;52.742;11.420;2022-09-27T08:08:56;9.63;;;9.03;;
8584;SDS011;7180;52.742;11.420;2022-09-27T08:11:23;9.70;;;9.20;;
8584;SDS011;7180;52.742;11.420;2022-09-27T08:13:49;9.53;;;9.03;;
8584;SDS011;7180;52.742;11.420;2022-09-27T08:16:16;9.90;;;9.40;;
8584;SDS011;7180;52.742;11.420;2022-09-27T08:18:41;10.20;;;9.60;;
8584;SDS011;7180;52.742;11.420;2022-09-27T08:21:06;10.77;;;10.00;;
8584;SDS011;7180;52.742;11.420;2022-09-27T08:23:32;9.80;;;9.30;;
8584;SDS011;7180;52.742;11.420;2022-09-27T08:25:57;10.38;;;9.80;;
8584;SDS011;7180;52.742;11.420;2022-09-27T08:28:22;10.17;;;9.67;;
8584;SDS011;7180;52.742;11.420;2022-09-27T08:30:48;9.60;;;9.10;;
8584;SDS011;7180;52.742;11.420;2022-09-27T08:33:13;10.43;;;9.83;;
8584;SDS011;7180;52.742;11.420;2022-09-27T08:35:38;8.80;;;8.30;;
8584;SDS011;7180;52.742;11.420;2022-09-27T08:38:03;8.70;;;8.30;;
8584;SDS011;7180;52.742;11.420;2022-09-27T08:40:39;9.27;;;8.77;;
8584;SDS011;7180;52.742;11.420;2022-09-27T08:43:29;8.70;;;8.30;;
8584;SDS011;7180;52.742;11.420;2022-09-27T08:48:33;8.60;;;8.10;;
8584;SDS011;7180;52.742;11.420;2022-09-27T08:51:00;8.67;;;8.17;;
8584;SDS011;7180;52.742;11.420;2022-09-27T08:53:27;8.20;;;7.80;;
8584;SDS011;7180;52.742;11.420;2022-09-27T08:55:58;7.50;;;7.03;;
8584;SDS011;7180;52.742;11.420;2022-09-27T08:58:34;7.47;;;7.03;;
8584;SDS011;7180;52.742;11.420;2022-09-27T09:01:01;8.03;;;7.53;;
8584;SDS011;7180;52.742;11.420;2022-09-27T09:03:31;8.00;;;7.60;;
8584;SDS011;7180;52.742;11.420;2022-09-27T09:06:18;8.23;;;7.73;;
8584;SDS011;7180;52.742;11.420;2022-09-27T09:08:51;8.13;;;7.73;;
8584;SDS011;7180;52.742;11.420;2022-09-27T09:19:46;7.17;;;6.87;;
8584;SDS011;7180;52.742;11.420;2022-09-27T09:22:26;7.60;;;7.10;;
8584;SDS011;7180;52.742;11.420;2022-09-27T09:32:40;7.50;;;7.00;;
8584;SDS011;7180;52.742;11.420;2022-09-27T09:35:16;7.53;;;7.13;;
8584;SDS011;7180;52.742;11.420;2022-09-27T09:37:44;7.37;;;6.97;;
8584;SDS011;7180;52.742;11.420;2022-09-27T09:42:44;7.70;;;7.30;;
8584;SDS011;7180;52.742;11.420;2022-09-27T09:45:18;7.50;;;7.10;;
8584;SDS011;7180;52.742;11.420;2022-09-27T09:47:47;7.57;;;7.07;;
8584;SDS011;7180;52.742;11.420;2022-09-27T09:50:19;8.00;;;7.50;;
8584;SDS011;7180;52.742;11.420;2022-09-27T09:52:48;7.60;;;7.20;;
8584;SDS011;7180;52.742;11.420;2022-09-27T09:55:21;7.67;;;7.17;;
8584;SDS011;7180;52.742;11.420;2022-09-27T10:00:18;8.87;;;8.37;;
8584;SDS011;7180;52.742;11.420;2022-09-27T10:02:44;8.83;;;8.27;;
8584;SDS011;7180;52.742;11.420;2022-09-27T10:05:16;8.30;;;7.90;;
8584;SDS011;7180;52.742;11.420;2022-09-27T10:07:42;8.60;;;8.10;;
8584;SDS011;7180;52.742;11.420;2022-09-27T10:10:10;8.53;;;7.93;;
8584;SDS011;7180;52.742;11.420;2022-09-27T10:12:36;9.40;;;8.80;;
8584;SDS011;7180;52.742;11.420;2022-09-27T10:15:02;8.60;;;8.07;;
8584;SDS011;7180;52.742;11.420;2022-09-27T10:17:33;8.20;;;7.70;;
8584;SDS011;7180;52.742;11.420;2022-09-27T10:19:59;8.47;;;7.97;;
8584;SDS011;7180;52.742;11.420;2022-09-27T10:22:34;8.47;;;7.97;;
8584;SDS011;7180;52.742;11.420;2022-09-27T10:25:01;9.27;;;8.77;;
8584;SDS011;7180;52.742;11.420;2022-09-27T10:27:27;8.93;;;8.43;;
8584;SDS011;7180;52.742;11.420;2022-09-27T10:30:01;8.30;;;7.90;;
8584;SDS011;7180;52.742;11.420;2022-09-27T10:32:27;8.97;;;8.40;;
8584;SDS011;7180;52.742;11.420;2022-09-27T10:34:55;8.63;;;8.13;;
8584;SDS011;7180;52.742;11.420;2022-09-27T10:37:21;8.93;;;8.33;;
8584;SDS011;7180;52.742;11.420;2022-09-27T10:39:47;8.60;;;8.10;;
8584;SDS011;7180;52.742;11.420;2022-09-27T10:47:46;8.50;;;8.03;;
8584;SDS011;7180;52.742;11.420;2022-09-27T10:50:15;8.60;;;8.10;;
8584;SDS011;7180;52.742;11.420;2022-09-27T10:52:41;7.13;;;6.73;;
8584;SDS011;7180;52.742;11.420;2022-09-27T10:55:12;7.97;;;7.47;;
8584;SDS011;7180;52.742;11.420;2022-09-27T10:57:40;7.80;;;7.20;;
8584;SDS011;7180;52.742;11.420;2022-09-27T11:00:07;8.40;;;7.87;;
8584;SDS011;7180;52.742;11.420;2022-09-27T11:02:33;8.47;;;7.97;;
8584;SDS011;7180;52.742;11.420;2022-09-27T11:05:12;8.13;;;7.63;;
8584;SDS011;7180;52.742;11.420;2022-09-27T11:07:48;8.87;;;8.27;;
8584;SDS011;7180;52.742;11.420;2022-09-27T11:10:24;7.03;;;6.63;;
8584;SDS011;7180;52.742;11.420;2022-09-27T11:13:05;8.47;;;7.87;;
8584;SDS011;7180;52.742;11.420;2022-09-27T11:15:33;8.67;;;8.17;;
8584;SDS011;7180;52.742;11.420;2022-09-27T11:18:16;8.40;;;7.90;;
8584;SDS011;7180;52.742;11.420;2022-09-27T11:20:50;8.80;;;8.23;;
8584;SDS011;7180;52.742;11.420;2022-09-27T11:23:26;8.70;;;8.20;;
8584;SDS011;7180;52.742;11.420;2022-09-27T11:28:50;8.20;;;7.80;;
8584;SDS011;7180;52.742;11.420;2022-09-27T11:31:24;8.13;;;7.60;;
8584;SDS011;7180;52.742;11.420;2022-09-27T11:41:54;8.83;;;8.23;;
8584;SDS011;7180;52.742;11.420;2022-09-27T11:47:14;8.37;;;7.90;;
8584;SDS011;7180;52.742;11.420;2022-09-27T11:49:50;8.00;;;7.70;;
8584;SDS011;7180;52.742;11.420;2022-09-27T11:52:33;8.50;;;8.00;;
8584;SDS011;7180;52.742;11.420;2022-09-27T11:55:11;8.50;;;8.10;;
8584;SDS011;7180;52.742;11.420;2022-09-27T11:57:42;8.43;;;8.03;;
8584;SDS011;7180;52.742;11.420;2022-09-27T12:05:14;8.10;;;7.60;;
8584;SDS011;7180;52.742;11.420;2022-09-27T12:07:43;9.13;;;8.50;;
8584;SDS011;7180;52.742;11.420;2022-09-27T12:10:12;8.33;;;7.73;;
8584;SDS011;7180;52.742;11.420;2022-09-27T12:12:38;8.93;;;8.43;;
8584;SDS011;7180;52.742;11.420;2022-09-27T12:15:05;8.87;;;8.37;;
8584;SDS011;7180;52.742;11.420;2022-09-27T12:17:37;8.60;;;8.10;;
8584;SDS011;7180;52.742;11.420;2022-09-27T12:20:09;8.23;;;7.83;;
8584;SDS011;7180;52.742;11.420;2022-09-27T12:23:13;9.27;;;8.67;;
8584;SDS011;7180;52.742;11.420;2022-09-27T12:25:30;8.40;;;7.80;;
8584;SDS011;7180;52.742;11.420;2022-09-27T12:28:07;7.90;;;7.30;;
8584;SDS011;7180;52.742;11.420;2022-09-27T12:30:34;8.43;;;7.93;;
8584;SDS011;7180;52.742;11.420;2022-09-27T12:33:36;8.03;;;7.63;;
8584;SDS011;7180;52.742;11.420;2022-09-27T12:35:53;9.00;;;8.40;;
8584;SDS011;7180;52.742;11.420;2022-09-27T12:40:53;8.10;;;7.67;;
8584;SDS011;7180;52.742;11.420;2022-09-27T12:43:26;7.63;;;7.23;;
8584;SDS011;7180;52.742;11.420;2022-09-27T12:46:04;8.63;;;8.13;;
8584;SDS011;7180;52.742;11.420;2022-09-27T12:51:11;8.77;;;8.17;;
8584;SDS011;7180;52.742;11.420;2022-09-27T13:04:16;7.40;;;7.00;;
8584;SDS011;7180;52.742;11.420;2022-09-27T13:06:47;9.47;;;8.87;;
8584;SDS011;7180;52.742;11.420;2022-09-27T13:14:28;9.57;;;8.97;;
8584;SDS011;7180;52.742;11.420;2022-09-27T13:16:53;9.27;;;8.77;;
8584;SDS011;7180;52.742;11.420;2022-09-27T13:26:59;9.87;;;9.27;;
8584;SDS011;7180;52.742;11.420;2022-09-27T13:29:28;8.90;;;8.30;;
8584;SDS011;7180;52.742;11.420;2022-09-27T13:34:37;8.60;;;8.10;;
8584;SDS011;7180;52.742;11.420;2022-09-27T13:39:47;9.20;;;8.70;;
8584;SDS011;7180;52.742;11.420;2022-09-27T13:42:16;8.07;;;7.50;;
8584;SDS011;7180;52.742;11.420;2022-09-27T13:47:37;8.43;;;8.03;;
8584;SDS011;7180;52.742;11.420;2022-09-27T13:50:24;8.90;;;8.40;;
8584;SDS011;7180;52.742;11.420;2022-09-27T13:53:06;8.93;;;8.43;;
8584;SDS011;7180;52.742;11.420;2022-09-27T13:56:05;8.77;;;8.37;;
8584;SDS011;7180;52.742;11.420;2022-09-27T14:00:58;8.40;;;8.00;;
8584;SDS011;7180;52.742;11.420;2022-09-27T14:06:05;8.63;;;8.23;;
8584;SDS011;7180;52.742;11.420;2022-09-27T14:08:35;8.27;;;7.80;;
8584;SDS011;7180;52.742;11.420;2022-09-27T14:11:02;7.50;;;7.20;;
8584;SDS011;7180;52.742;11.420;2022-09-27T14:13:28;8.20;;;7.80;;
8584;SDS011;7180;52.742;11.420;2022-09-27T14:15:56;7.90;;;7.53;;
8584;SDS011;7180;52.742;11.420;2022-09-27T14:18:22;9.77;;;9.17;;
8584;SDS011;7180;52.742;11.420;2022-09-27T14:20:48;8.77;;;8.27;;
8584;SDS011;7180;52.742;11.420;2022-09-27T14:23:17;7.83;;;7.43;;
8584;SDS011;7180;52.742;11.420;2022-09-27T14:25:45;9.83;;;9.13;;
8584;SDS011;7180;52.742;11.420;2022-09-27T14:28:21;10.17;;;9.57;;
8584;SDS011;7180;52.742;11.420;2022-09-27T14:30:46;7.80;;;7.30;;
8584;SDS011;7180;52.742;11.420;2022-09-27T14:33:28;7.77;;;7.20;;
8584;SDS011;7180;52.742;11.420;2022-09-27T14:35:53;7.30;;;6.90;;
8584;SDS011;7180;52.742;11.420;2022-09-27T14:38:37;8.20;;;7.80;;
8584;SDS011;7180;52.742;11.420;2022-09-27T14:41:03;9.10;;;8.70;;
8584;SDS011;7180;52.742;11.420;2022-09-27T14:43:29;11.63;;;10.83;;
8584;SDS011;7180;52.742;11.420;2022-09-27T14:45:58;12.00;;;11.20;;
8584;SDS011;7180;52.742;11.420;2022-09-27T14:48:31;10.30;;;9.60;;
8584;SDS011;7180;52.742;11.420;2022-09-27T14:51:00;7.80;;;7.50;;
8584;SDS011;7180;52.742;11.420;2022-09-27T14:53:29;7.30;;;7.00;;
8584;SDS011;7180;52.742;11.420;2022-09-27T14:55:54;8.23;;;7.83;;
8584;SDS011;7180;52.742;11.420;2022-09-27T14:58:21;8.40;;;7.80;;
8584;SDS011;7180;52.742;11.420;2022-09-27T15:00:54;8.57;;;8.10;;
8584;SDS011;7180;52.742;11.420;2022-09-27T15:03:23;8.20;;;7.80;;
8584;SDS011;7180;52.742;11.420;2022-09-27T15:05:49;8.07;;;7.67;;
8584;SDS011;7180;52.742;11.420;2022-09-27T15:08:15;9.13;;;8.43;;
8584;SDS011;7180;52.742;11.420;2022-09-27T15:10:41;8.30;;;7.80;;
8584;SDS011;7180;52.742;11.420;2022-09-27T15:13:10;8.00;;;7.43;;
8584;SDS011;7180;52.742;11.420;2022-09-27T15:15:37;7.93;;;7.47;;
8584;SDS011;7180;52.742;11.420;2022-09-27T15:18:29;8.00;;;7.60;;
8584;SDS011;7180;52.742;11.420;2022-09-27T15:20:52;7.77;;;7.47;;
8584;SDS011;7180;52.742;11.420;2022-09-27T15:23:25;8.07;;;7.67;;
8584;SDS011;7180;52.742;11.420;2022-09-27T15:28:42;7.37;;;7.00;;
8584;SDS011;7180;52.742;11.420;2022-09-27T15:31:08;7.70;;;7.40;;
8584;SDS011;7180;52.742;11.420;2022-09-27T15:33:33;9.30;;;8.80;;
8584;SDS011;7180;52.742;11.420;2022-09-27T15:36:00;8.90;;;8.37;;
8584;SDS011;7180;52.742;11.420;2022-09-27T15:38:28;8.50;;;8.10;;
8584;SDS011;7180;52.742;11.420;2022-09-27T15:40:57;8.53;;;8.03;;
8584;SDS011;7180;52.742;11.420;2022-09-27T15:46:00;7.90;;;7.50;;
8584;SDS011;7180;52.742;11.420;2022-09-27T15:48:27;8.67;;;8.10;;
8584;SDS011;7180;52.742;11.420;2022-09-27T15:50:52;8.70;;;8.20;;
8584;SDS011;7180;52.742;11.420;2022-09-27T15:53:39;8.30;;;7.90;;
8584;SDS011;7180;52.742;11.420;2022-09-27T15:56:05;8.47;;;7.97;;
8584;SDS011;7180;52.742;11.420;2022-09-27T15:58:30;8.57;;;8.13;;
8584;SDS011;7180;52.742;11.420;2022-09-27T16:00:57;7.60;;;7.20;;
8584;SDS011;7180;52.742;11.420;2022-09-27T16:03:23;8.40;;;8.00;;
8584;SDS011;7180;52.742;11.420;2022-09-27T16:05:48;8.73;;;8.33;;
8584;SDS011;7180;52.742;11.420;2022-09-27T16:08:13;8.30;;;7.90;;
8584;SDS011;7180;52.742;11.420;2022-09-27T16:10:40;8.50;;;8.10;;
8584;SDS011;7180;52.742;11.420;2022-09-27T16:13:06;8.33;;;7.90;;
8584;SDS011;7180;52.742;11.420;2022-09-27T16:15:31;8.00;;;7.60;;
8584;SDS011;7180;52.742;11.420;2022-09-27T16:17:57;8.33;;;7.83;;
8584;SDS011;7180;52.742;11.420;2022-09-27T16:20:23;8.40;;;8.00;;
8584;SDS011;7180;52.742;11.420;2022-09-27T16:22:49;8.00;;;7.60;;
8584;SDS011;7180;52.742;11.420;2022-09-27T16:25:14;7.63;;;7.17;;
8584;SDS011;7180;52.742;11.420;2022-09-27T16:27:40;8.50;;;8.10;;
8584;SDS011;7180;52.742;11.420;2022-09-27T16:30:05;8.50;;;8.00;;
8584;SDS011;7180;52.742;11.420;2022-09-27T16:32:31;8.13;;;7.73;;
8584;SDS011;7180;52.742;11.420;2022-09-27T16:34:57;8.43;;;7.97;;
8584;SDS011;7180;52.742;11.420;2022-09-27T16:37:22;8.35;;;7.95;;
8584;SDS011;7180;52.742;11.420;2022-09-27T16:39:47;8.27;;;7.77;;
8584;SDS011;7180;52.742;11.420;2022-09-27T16:42:13;7.70;;;7.40;;
8584;SDS011;7180;52.742;11.420;2022-09-27T16:44:39;7.50;;;7.20;;
8584;SDS011;7180;52.742;11.420;2022-09-27T16:47:04;7.35;;;7.05;;
8584;SDS011;7180;52.742;11.420;2022-09-27T16:49:31;7.70;;;7.40;;
8584;SDS011;7180;52.742;11.420;2022-09-27T16:52:15;7.30;;;7.00;;
8584;SDS011;7180;52.742;11.420;2022-09-27T16:54:40;7.80;;;7.40;;
8584;SDS011;7180;52.742;11.420;2022-09-27T16:57:08;7.87;;;7.40;;
8584;SDS011;7180;52.742;11.420;2022-09-27T16:59:34;8.40;;;7.80;;
8584;SDS011;7180;52.742;11.420;2022-09-27T17:01:59;9.00;;;8.50;;
8584;SDS011;7180;52.742;11.420;2022-09-27T17:04:25;7.20;;;6.90;;
8584;SDS011;7180;52.742;11.420;2022-09-27T17:06:51;7.77;;;7.37;;
8584;SDS011;7180;52.742;11.420;2022-09-27T17:09:16;7.03;;;6.73;;